createdAt,value
2018-07-03T06:11:23.370Z,1.00
2018-07-03T06:13:54.507Z,1.30
2018-07-03T06:22:35.970Z,1.07
2018-07-03T06:25:08.552Z,1.33
2018-07-03T06:27:37.581Z,0.80
2018-07-03T06:30:08.395Z,1.43
2018-07-03T06:32:53.765Z,1.40
2018-07-03T06:35:23.301Z,0.80
2018-07-03T06:37:55.429Z,0.70
2018-07-03T06:40:24.326Z,1.13
2018-07-03T06:42:54.966Z,0.87
2018-07-03T06:45:27.322Z,1.07
2018-07-03T06:47:58.310Z,0.73
2018-07-03T06:56:48.181Z,0.87
2018-07-03T06:59:17.049Z,0.80
2018-07-03T07:01:46.173Z,0.90
2018-07-03T07:04:15.461Z,0.60
2018-07-03T07:06:44.034Z,0.63
2018-07-03T07:09:13.071Z,0.53
2018-07-03T07:11:44.385Z,0.73
2018-07-03T07:14:12.989Z,0.87
2018-07-03T07:16:41.822Z,0.80
2018-07-03T07:19:10.658Z,0.60
2018-07-03T07:21:39.420Z,0.60
2018-07-03T07:24:08.455Z,0.67
2018-07-03T07:26:37.178Z,0.60
2018-07-03T07:29:05.766Z,0.60
2018-07-03T07:31:35.061Z,0.50
2018-07-03T07:34:05.819Z,0.63
2018-07-03T07:36:34.626Z,0.50
2018-07-03T07:39:14.500Z,0.40
2018-07-03T07:41:43.237Z,0.50
2018-07-03T07:44:12.913Z,0.50
2018-07-03T07:46:42.441Z,0.63
2018-07-03T07:49:12.017Z,0.50
2018-07-03T07:51:41.710Z,0.70
2018-07-03T07:54:10.946Z,0.57
2018-07-03T07:56:39.766Z,0.50
2018-07-03T07:59:08.859Z,0.70
2018-07-03T08:01:37.625Z,0.83
2018-07-03T08:04:09.259Z,0.77
2018-07-03T08:06:38.305Z,1.07
2018-07-03T08:09:09.255Z,0.80
2018-07-03T08:11:38.600Z,0.80
2018-07-03T08:14:08.032Z,0.77
2018-07-03T08:16:46.516Z,0.50
2018-07-03T08:19:16.566Z,0.60
2018-07-03T08:21:46.174Z,0.80
2018-07-03T08:24:16.328Z,0.70
2018-07-03T08:26:45.624Z,0.60
2018-07-03T08:29:15.090Z,0.70
2018-07-03T08:31:45.279Z,0.73
2018-07-03T08:34:18.687Z,0.70
2018-07-03T08:36:48.821Z,0.60
2018-07-03T08:39:21.652Z,0.50
2018-07-03T08:41:50.567Z,0.60
2018-07-03T08:44:21.096Z,0.90
2018-07-03T08:46:49.982Z,0.80
2018-07-03T08:49:20.492Z,1.00
2018-07-03T08:51:51.445Z,0.60
2018-07-03T08:54:21.349Z,0.73
2018-07-03T08:56:50.873Z,0.60
2018-07-03T08:59:20.753Z,0.70
2018-07-03T09:01:51.581Z,0.80
2018-07-03T09:04:20.146Z,0.70
2018-07-03T09:06:50.400Z,0.70
2018-07-03T09:09:19.516Z,0.70
2018-07-03T09:11:51.270Z,0.83
2018-07-03T09:14:20.541Z,0.80
2018-07-03T09:16:49.248Z,0.60
2018-07-03T09:19:17.868Z,0.93
2018-07-03T09:21:48.405Z,0.50
2018-07-03T09:24:16.958Z,0.80
2018-07-03T09:26:45.715Z,0.90
2018-07-03T09:29:15.013Z,0.43
2018-07-03T09:31:43.702Z,1.10
2018-07-03T09:34:13.453Z,0.70
2018-07-03T09:36:45.274Z,0.80
2018-07-03T09:39:15.601Z,1.10
2018-07-03T09:41:45.189Z,0.90
2018-07-03T09:44:13.949Z,0.80
2018-07-03T09:46:43.366Z,0.90
2018-07-03T09:49:16.394Z,1.30
2018-07-03T09:51:48.422Z,0.90
2018-07-03T09:54:26.978Z,1.03
2018-07-03T09:57:07.056Z,1.30
2018-07-03T09:59:36.780Z,1.23
2018-07-03T10:02:09.056Z,1.17
2018-07-03T10:04:37.702Z,1.00
2018-07-03T10:07:06.800Z,1.17
2018-07-03T10:09:39.458Z,1.10
2018-07-03T10:12:11.258Z,1.10
2018-07-03T10:14:48.517Z,0.90
2018-07-03T10:17:18.071Z,0.87
2018-07-03T10:19:46.939Z,0.87
2018-07-03T10:22:15.407Z,0.97
2018-07-03T10:24:43.838Z,1.10
2018-07-03T10:27:12.527Z,1.30
2018-07-03T10:29:41.956Z,0.80
2018-07-03T10:32:11.918Z,1.30
2018-07-03T10:34:41.383Z,0.87
2018-07-03T10:37:12.979Z,1.07
2018-07-03T10:39:41.760Z,1.07
2018-07-03T10:42:10.210Z,1.03
2018-07-03T10:44:38.749Z,0.70
2018-07-03T10:59:22.752Z,0.83
2018-07-03T11:01:51.207Z,0.90
2018-07-03T11:04:19.555Z,0.90
2018-07-03T11:06:50.190Z,0.53
2018-07-03T11:09:18.700Z,0.90
2018-07-03T11:11:47.140Z,1.10
2018-07-03T11:14:17.901Z,1.00
2018-07-03T11:16:48.676Z,0.70
2018-07-03T11:19:17.160Z,0.73
2018-07-03T11:21:46.459Z,1.20
2018-07-03T11:24:17.108Z,0.60
2018-07-03T11:26:46.980Z,0.80
2018-07-03T11:29:16.461Z,0.70
2018-07-03T11:31:44.859Z,0.70
2018-07-03T11:34:15.756Z,1.10
2018-07-03T11:36:46.577Z,0.87
2018-07-03T11:39:18.181Z,0.77
2018-07-03T11:41:46.929Z,1.00
2018-07-03T11:44:15.724Z,1.03
2018-07-03T11:46:44.318Z,0.80
2018-07-03T11:49:12.786Z,0.80
2018-07-03T11:51:41.366Z,0.70
2018-07-03T11:54:09.883Z,0.70
2018-07-03T11:56:38.235Z,0.80
2018-07-03T11:59:08.626Z,0.70
2018-07-03T12:01:37.401Z,1.03
2018-07-03T12:04:09.091Z,0.57
2018-07-03T12:06:42.085Z,0.80
2018-07-03T12:09:11.144Z,0.80
2018-07-03T12:11:39.513Z,0.80
2018-07-03T12:14:09.113Z,0.60
2018-07-03T12:16:37.400Z,0.90
2018-07-03T12:19:06.747Z,1.00
2018-07-03T12:21:38.205Z,0.83
2018-07-03T12:24:06.955Z,0.77
2018-07-03T12:26:35.402Z,0.70
2018-07-03T12:42:00.159Z,1.00
2018-07-03T12:44:28.476Z,0.80
2018-07-03T12:46:56.955Z,0.80
2018-07-03T12:49:27.638Z,0.80
2018-07-03T12:51:56.171Z,0.70
2018-07-03T12:54:24.542Z,0.83
2018-07-03T12:56:54.294Z,0.70
2018-07-03T12:59:22.885Z,0.80
2018-07-03T13:01:51.263Z,0.90
2018-07-03T13:04:20.290Z,0.90
2018-07-03T13:06:48.643Z,1.33
2018-07-03T13:09:16.961Z,1.10
2018-07-03T13:11:47.507Z,0.90
2018-07-03T13:14:15.865Z,0.87
2018-07-03T13:16:44.452Z,1.07
2018-07-03T13:20:56.018Z,0.90
2018-07-03T13:23:25.178Z,0.90
2018-07-03T13:25:55.819Z,0.93
2018-07-03T13:28:24.344Z,0.80
2018-07-03T13:53:29.205Z,1.00
2018-07-03T13:55:57.603Z,1.30
2018-07-03T13:58:25.912Z,0.77
2018-07-03T14:00:54.866Z,0.80
2018-07-03T14:03:23.879Z,0.90
2018-07-03T14:05:54.864Z,1.10
2018-07-03T14:08:23.263Z,1.07
2018-07-03T14:13:33.441Z,0.70
2018-07-03T14:16:03.960Z,1.40
2018-07-03T14:18:32.296Z,0.67
2018-07-03T14:21:01.561Z,0.80
2018-07-03T14:23:30.661Z,0.80
2018-07-03T14:25:58.870Z,0.90
2018-07-03T14:28:29.832Z,0.73
2018-07-03T14:31:09.537Z,1.40
2018-07-03T14:33:38.374Z,1.03
2018-07-03T14:36:07.477Z,1.00
2018-07-03T14:38:41.916Z,0.93
2018-07-03T14:41:10.494Z,0.70
2018-07-03T14:43:38.776Z,0.90
2018-07-03T14:46:09.551Z,0.70
2018-07-03T14:48:40.845Z,1.00
2018-07-03T14:51:09.562Z,0.90
2018-07-03T14:56:23.387Z,0.90
2018-07-03T15:02:18.429Z,1.00
2018-07-03T15:04:49.087Z,1.17
2018-07-03T15:07:42.461Z,1.40
2018-07-03T15:14:00.657Z,1.90
2018-07-03T15:16:29.243Z,2.10
2018-07-03T15:19:03.141Z,2.50
2018-07-03T15:21:35.043Z,2.13
2018-07-03T15:24:06.165Z,2.17
2018-07-03T15:26:34.583Z,2.13
2018-07-03T15:29:08.173Z,1.93
2018-07-03T15:31:37.611Z,2.13
2018-07-03T15:34:06.130Z,2.40
2018-07-03T15:36:35.043Z,1.60
2018-07-03T15:39:03.927Z,2.10
2018-07-03T15:41:33.300Z,2.40
2018-07-03T15:44:13.262Z,2.30
2018-07-03T15:46:45.582Z,2.50
2018-07-03T15:49:17.023Z,2.60
2018-07-03T15:51:48.882Z,2.30
2018-07-03T15:54:19.686Z,2.23
2018-07-03T15:56:48.367Z,2.93
2018-07-03T15:59:16.813Z,2.10
2018-07-03T16:01:45.192Z,2.40
2018-07-03T16:05:29.031Z,1.80
2018-07-03T16:08:05.523Z,2.17
2018-07-03T16:10:36.903Z,1.90
2018-07-03T16:13:05.435Z,2.10
2018-07-03T16:15:33.731Z,2.27
2018-07-03T16:18:06.378Z,2.17
2018-07-03T16:20:39.028Z,2.37
2018-07-03T16:23:07.573Z,2.60
2018-07-03T16:25:35.646Z,3.50
2018-07-03T16:28:03.768Z,2.63
2018-07-03T16:30:36.220Z,2.33
2018-07-03T16:33:04.580Z,2.67
2018-07-03T16:35:32.880Z,3.10
2018-07-03T16:38:01.927Z,2.73
2018-07-03T16:40:30.223Z,3.10
2018-07-03T16:42:58.364Z,2.80
2018-07-03T16:45:29.163Z,2.57
2018-07-03T16:47:57.692Z,2.40
2018-07-03T16:50:32.655Z,3.27
2018-07-03T16:53:01.004Z,2.40
2018-07-03T16:55:34.444Z,2.90
2018-07-03T16:58:07.381Z,2.53
2018-07-03T17:00:36.210Z,3.10
2018-07-03T17:03:04.737Z,2.97
2018-07-03T17:05:33.169Z,2.80
2018-07-03T17:08:01.888Z,2.33
2018-07-03T17:10:30.171Z,2.80
2018-07-03T17:12:58.949Z,2.20
2018-07-03T17:15:29.449Z,1.37
2018-07-03T17:17:58.813Z,2.10
2018-07-03T17:20:29.417Z,1.67
2018-07-03T17:22:58.889Z,1.80
2018-07-03T17:25:27.256Z,1.63
2018-07-03T17:27:57.605Z,1.43
2018-07-03T17:30:28.310Z,2.13
2018-07-03T17:32:56.644Z,2.07
2018-07-03T17:35:27.210Z,1.70
2018-07-03T17:37:55.706Z,1.80
2018-07-03T17:40:35.460Z,2.00
2018-07-03T17:43:17.745Z,2.10
2018-07-03T17:46:09.790Z,1.80
2018-07-03T17:48:38.310Z,2.17
2018-07-03T17:51:06.656Z,1.93
2018-07-03T17:53:35.177Z,1.97
2018-07-03T17:56:05.691Z,1.87
2018-07-03T17:58:34.041Z,1.60
2018-07-03T18:01:04.319Z,2.10
2018-07-03T18:03:33.134Z,1.57
2018-07-03T18:06:02.521Z,1.93
2018-07-03T18:08:33.357Z,1.83
2018-07-03T18:11:01.926Z,2.23
2018-07-03T18:13:30.464Z,1.77
2018-07-03T18:15:59.092Z,1.60
2018-07-03T18:18:41.486Z,1.50
2018-07-03T18:21:27.936Z,1.70
2018-07-03T18:25:01.355Z,1.43
2018-07-03T18:31:22.392Z,1.87
2018-07-03T18:34:02.005Z,1.63
2018-07-03T18:39:25.215Z,1.30
2018-07-03T18:45:07.598Z,1.70
2018-07-03T18:47:42.864Z,1.57
2018-07-03T18:50:23.292Z,1.70
2018-07-03T18:52:54.841Z,1.80
2018-07-03T18:55:23.581Z,1.80
2018-07-03T18:57:54.062Z,1.63
2018-07-03T19:03:34.836Z,1.63
2018-07-03T19:06:05.481Z,2.10
2018-07-03T19:08:34.983Z,1.90
2018-07-03T19:11:03.570Z,1.87
2018-07-03T19:13:32.284Z,1.63
2018-07-03T19:16:01.025Z,1.40
2018-07-03T19:18:31.587Z,1.83
2018-07-03T19:21:00.521Z,1.97
2018-07-03T19:23:28.780Z,1.77
2018-07-03T19:25:59.491Z,1.50
2018-07-03T19:28:28.290Z,1.53
2018-07-03T19:30:56.847Z,1.50
2018-07-03T19:33:25.481Z,1.73
2018-07-03T19:35:56.282Z,2.23
2018-07-03T19:38:53.735Z,1.60
2018-07-03T19:41:26.646Z,2.00
2018-07-03T19:43:55.344Z,2.13
2018-07-03T19:46:24.027Z,2.27
2018-07-03T19:48:52.870Z,2.13
2018-07-03T19:51:21.547Z,2.23
2018-07-03T19:53:50.062Z,1.97
2018-07-03T19:56:18.909Z,2.00
2018-07-03T19:58:51.830Z,2.57
2018-07-03T20:01:22.373Z,2.50
2018-07-03T20:03:53.052Z,2.90
2018-07-03T20:06:21.483Z,2.07
2018-07-03T20:08:52.493Z,2.80
2018-07-03T20:11:23.136Z,2.43
2018-07-03T20:13:51.690Z,2.33
2018-07-03T20:16:20.431Z,2.50
2018-07-03T20:18:52.407Z,2.37
2018-07-03T20:21:22.967Z,2.70
2018-07-03T20:23:51.344Z,2.50
2018-07-03T20:26:19.956Z,2.60
2018-07-03T20:28:50.566Z,3.17
2018-07-03T20:31:18.694Z,2.80
2018-07-03T20:33:47.432Z,2.70
2018-07-03T20:36:18.160Z,3.10
2018-07-03T20:38:46.657Z,2.57
2018-07-03T20:41:17.282Z,3.00
2018-07-03T20:43:45.993Z,2.90
2018-07-03T20:46:14.528Z,3.50
2018-07-03T20:48:43.137Z,2.83
2018-07-03T20:51:11.818Z,3.10
2018-07-03T20:53:40.369Z,3.30
2018-07-03T20:56:10.834Z,3.10
2018-07-03T20:58:41.556Z,2.90
2018-07-03T21:01:12.396Z,3.37
2018-07-03T21:03:40.994Z,3.73
2018-07-03T21:06:11.615Z,3.30
2018-07-03T21:08:39.704Z,3.50
2018-07-03T21:11:10.761Z,3.80
2018-07-03T21:13:41.272Z,3.70
2018-07-03T21:16:09.785Z,3.67
2018-07-03T21:18:38.384Z,3.33
2018-07-03T21:21:06.940Z,3.63
2018-07-03T21:23:35.407Z,3.67
2018-07-03T21:26:04.088Z,3.77
2018-07-03T21:28:35.362Z,3.40
2018-07-03T21:31:03.980Z,3.67
2018-07-03T21:33:32.534Z,4.03
2018-07-03T21:36:01.125Z,3.67
2018-07-03T21:38:30.109Z,4.03
2018-07-03T21:40:58.890Z,3.90
2018-07-03T21:43:27.575Z,3.97
2018-07-03T21:45:56.116Z,3.70
2018-07-03T21:48:26.789Z,4.10
2018-07-03T21:50:57.256Z,4.23
2018-07-03T21:53:25.717Z,4.13
2018-07-03T21:55:56.574Z,3.47
2018-07-03T21:58:25.360Z,3.60
2018-07-03T22:00:53.892Z,3.80
2018-07-03T22:03:22.549Z,4.30
2018-07-03T22:05:53.263Z,3.93
2018-07-03T22:08:23.435Z,4.30
2018-07-03T22:10:51.876Z,3.13
2018-07-03T22:13:20.364Z,3.90
2018-07-03T22:15:48.891Z,3.27
2018-07-03T22:18:17.357Z,4.60
2018-07-03T22:20:46.030Z,4.27
2018-07-03T22:23:14.646Z,3.90
2018-07-03T22:25:43.153Z,3.50
2018-07-03T22:28:11.920Z,3.70
2018-07-03T22:30:40.978Z,4.30
2018-07-03T22:33:09.449Z,3.90
2018-07-03T22:35:37.960Z,4.00
2018-07-03T22:38:06.491Z,3.70
2018-07-03T22:40:34.892Z,3.77
2018-07-03T22:43:03.581Z,4.33
2018-07-03T22:45:32.216Z,4.37
2018-07-03T22:48:00.661Z,4.40
2018-07-03T22:50:29.301Z,4.13
2018-07-03T22:52:58.067Z,4.07
2018-07-03T22:55:26.602Z,4.07
2018-07-03T22:57:57.312Z,5.20
2018-07-03T23:00:25.887Z,4.00
2018-07-03T23:02:54.384Z,3.80
2018-07-03T23:05:25.290Z,4.03
2018-07-03T23:07:54.060Z,4.73
2018-07-03T23:10:22.473Z,4.20
2018-07-03T23:12:51.221Z,4.60
2018-07-03T23:15:20.076Z,4.17
2018-07-03T23:17:48.505Z,4.57
2018-07-03T23:20:16.994Z,4.40
2018-07-03T23:22:47.770Z,4.70
2018-07-03T23:25:16.283Z,5.00
2018-07-03T23:27:44.981Z,4.30
2018-07-03T23:30:15.463Z,4.63
2018-07-03T23:32:43.550Z,4.57
2018-07-03T23:35:12.305Z,5.10
2018-07-03T23:37:42.682Z,4.47
2018-07-03T23:40:11.117Z,4.57
2018-07-03T23:42:39.633Z,4.70
2018-07-03T23:45:09.173Z,4.17
2018-07-03T23:47:51.182Z,4.53
2018-07-03T23:50:31.089Z,5.37
2018-07-03T23:53:10.991Z,4.67
2018-07-03T23:55:50.821Z,5.17
2018-07-03T23:58:32.403Z,4.50
